Time;durP1;ratioP1;P1;durP2;ratioP2;P2;SDS_P1;SDS_P2;PMS_P1;PMS_P2;Temp;Humidity;BMP_temperature;BMP_pressure;BME280_temperature;BME280_humidity;BME280_pressure;Samples;Min_cycle;Max_cycle;Signal;HPM_P1;HPM_P2
2023/03/24 00:02:12;;;;;;;13.18;4.35;;;11.60;99.90;;;;;;5105244;27;20043;-80
2023/03/24 00:04:41;;;;;;;10.23;3.58;;;11.60;99.90;;;;;;5106604;27;20062;-80
2023/03/24 00:07:13;;;;;;;12.43;3.60;;;11.60;99.90;;;;;;5089040;28;20490;-80
2023/03/24 00:09:39;;;;;;;10.70;3.78;;;11.60;99.90;;;;;;5088922;28;20129;-80
2023/03/24 00:12:05;;;;;;;8.65;3.17;;;11.60;99.90;;;;;;5106971;28;20395;-80
2023/03/24 00:14:31;;;;;;;10.48;3.78;;;11.60;99.90;;;;;;5104776;28;20145;-80
2023/03/24 00:16:58;;;;;;;12.68;3.65;;;11.60;99.90;;;;;;5106500;28;20043;-80
2023/03/24 00:19:24;;;;;;;9.07;2.78;;;11.60;99.90;;;;;;5105419;28;20051;-80
2023/03/24 00:21:54;;;;;;;13.85;3.50;;;11.60;99.90;;;;;;5089331;28;20116;-80
2023/03/24 00:24:21;;;;;;;6.82;2.70;;;11.60;99.90;;;;;;5106353;28;20122;-81
2023/03/24 00:26:49;;;;;;;11.60;3.38;;;11.60;99.90;;;;;;5088565;28;20092;-80
2023/03/24 00:29:15;;;;;;;8.52;3.28;;;11.60;99.90;;;;;;5106694;28;20039;-80
2023/03/24 00:31:42;;;;;;;12.85;3.75;;;11.60;99.90;;;;;;5087755;28;20382;-80
2023/03/24 00:34:09;;;;;;;12.48;3.13;;;11.60;99.90;;;;;;5089599;28;20039;-81
2023/03/24 00:36:35;;;;;;;6.55;3.67;;;11.60;99.90;;;;;;5088010;28;20043;-81
2023/03/24 00:39:03;;;;;;;12.18;3.70;;;11.50;99.90;;;;;;5089508;28;20162;-80
2023/03/24 00:41:29;;;;;;;13.48;3.97;;;11.50;99.90;;;;;;5106339;28;20164;-81
2023/03/24 00:43:57;;;;;;;9.68;3.35;;;11.60;99.90;;;;;;5088703;28;20104;-81
2023/03/24 00:46:27;;;;;;;9.32;2.95;;;11.50;99.90;;;;;;5089620;28;20054;-80
2023/03/24 00:49:02;;;;;;;8.95;3.45;;;11.60;99.90;;;;;;5108492;27;20043;-80
2023/03/24 00:51:31;;;;;;;11.90;4.68;;;11.50;99.90;;;;;;5093129;27;20035;-80
2023/03/24 00:53:58;;;;;;;8.02;3.30;;;11.50;99.90;;;;;;5109500;27;20414;-80
2023/03/24 00:56:29;;;;;;;7.00;3.45;;;11.50;99.90;;;;;;5092893;27;20566;-80
2023/03/24 00:58:56;;;;;;;5.82;3.08;;;11.50;99.90;;;;;;5092829;27;20608;-80
2023/03/24 01:01:28;;;;;;;5.43;2.60;;;11.50;99.90;;;;;;5074950;27;20043;-80
2023/03/24 01:03:55;;;;;;;9.48;2.67;;;11.50;99.90;;;;;;5110029;27;20111;-80
2023/03/24 01:06:23;;;;;;;5.45;3.15;;;11.50;99.90;;;;;;5091367;27;20039;-80
2023/03/24 01:08:52;;;;;;;10.85;2.90;;;11.50;99.90;;;;;;5093510;27;20047;-81
2023/03/24 01:11:23;;;;;;;6.85;2.67;;;11.50;99.90;;;;;;5092748;27;20183;-80
2023/03/24 01:13:50;;;;;;;4.05;2.83;;;11.50;99.90;;;;;;5108889;27;20057;-80
2023/03/24 01:16:16;;;;;;;6.45;2.72;;;11.50;99.90;;;;;;5109877;27;20046;-81
2023/03/24 01:18:42;;;;;;;8.93;2.70;;;11.40;99.90;;;;;;5091548;27;20042;-80
2023/03/24 01:21:10;;;;;;;6.53;2.60;;;11.50;99.90;;;;;;5109886;27;20757;-80
2023/03/24 01:23:37;;;;;;;7.90;2.53;;;11.50;99.90;;;;;;5091619;27;20334;-81
2023/03/24 01:26:08;;;;;;;7.40;2.88;;;11.50;99.90;;;;;;5092045;27;20055;-79
2023/03/24 01:28:39;;;;;;;5.32;2.70;;;11.50;99.90;;;;;;5108355;27;20110;-81
2023/03/24 01:31:07;;;;;;;9.45;2.60;;;11.50;99.90;;;;;;5108302;27;20104;-80
2023/03/24 01:33:33;;;;;;;6.43;2.65;;;11.50;99.90;;;;;;5092762;27;20473;-81
2023/03/24 01:35:59;;;;;;;7.25;2.72;;;12.50;99.90;;;;;;5073973;27;20456;-81
2023/03/24 01:38:25;;;;;;;12.00;3.60;;;11.50;99.90;;;;;;5059112;27;20043;-81
2023/03/24 01:40:52;;;;;;;5.40;2.78;;;11.50;99.90;;;;;;5074147;27;20051;-80
2023/03/24 01:43:21;;;;;;;4.03;2.22;;;11.50;99.90;;;;;;5108821;27;20513;-80
2023/03/24 01:45:50;;;;;;;7.75;2.53;;;11.50;99.90;;;;;;5091824;27;20049;-81
2023/03/24 01:48:36;;;;;;;3.67;2.38;;;11.50;99.90;;;;;;5091145;27;20130;-81
2023/03/24 01:51:04;;;;;;;8.88;2.28;;;11.50;99.90;;;;;;5084979;27;20096;-81
2023/03/24 01:53:32;;;;;;;5.18;2.38;;;11.50;99.90;;;;;;5090611;27;20043;-81
2023/03/24 01:56:01;;;;;;;7.57;2.55;;;11.50;99.90;;;;;;5092538;27;20065;-80
2023/03/24 01:58:29;;;;;;;4.40;2.58;;;11.50;99.90;;;;;;5108407;27;20394;-81
2023/03/24 02:00:56;;;;;;;4.22;2.35;;;11.50;99.90;;;;;;5108065;27;20043;-81
2023/03/24 02:03:24;;;;;;;7.57;2.95;;;11.50;99.90;;;;;;5092414;27;20032;-81
2023/03/24 02:05:53;;;;;;;4.75;2.58;;;11.50;99.90;;;;;;5107936;27;20414;-81
2023/03/24 02:08:47;;;;;;;3.53;2.47;;;11.50;99.90;;;;;;5109378;27;20039;-81
2023/03/24 02:11:13;;;;;;;5.07;2.42;;;11.50;99.90;;;;;;5108675;27;20652;-81
2023/03/24 02:13:39;;;;;;;5.93;2.35;;;11.50;99.90;;;;;;5108414;27;20393;-81
2023/03/24 02:16:25;;;;;;;6.03;2.45;;;11.50;99.90;;;;;;5109068;27;20055;-80
2023/03/24 02:19:25;;;;;;;4.28;2.00;;;11.50;99.90;;;;;;5090310;27;20078;-81
2023/03/24 02:22:09;;;;;;;6.55;2.35;;;11.50;99.90;;;;;;5108826;27;20367;-81
2023/03/24 02:25:20;;;;;;;4.63;2.42;;;11.50;99.90;;;;;;5108925;27;20115;-80
2023/03/24 02:28:02;;;;;;;4.10;2.47;;;11.50;99.90;;;;;;5074441;27;20086;-80
2023/03/24 02:30:54;;;;;;;4.53;2.30;;;11.50;99.90;;;;;;5108505;27;20542;-81
2023/03/24 02:33:44;;;;;;;6.43;2.70;;;11.50;99.90;;;;;;5091440;27;20498;-81
2023/03/24 02:36:31;;;;;;;4.50;2.10;;;11.50;99.90;;;;;;5107185;27;20043;-81
2023/03/24 02:39:34;;;;;;;6.28;2.20;;;11.50;99.90;;;;;;5107942;27;20053;-81
2023/03/24 02:42:38;;;;;;;5.60;2.50;;;11.60;99.90;;;;;;5108428;27;20043;-81
2023/03/24 02:45:35;;;;;;;5.65;2.60;;;11.50;99.90;;;;;;5123552;27;20142;-80
2023/03/24 02:48:18;;;;;;;8.15;3.42;;;11.60;99.90;;;;;;5094612;27;20051;-81
2023/03/24 02:50:50;;;;;;;7.18;2.38;;;11.50;99.90;;;;;;5107911;27;20050;-80
2023/03/24 02:53:36;;;;;;;7.97;2.95;;;11.60;99.90;;;;;;5107022;27;20054;-80
2023/03/24 02:56:15;;;;;;;4.68;2.17;;;11.60;99.90;;;;;;5090953;27;20464;-80
2023/03/24 02:59:33;;;;;;;3.85;2.13;;;11.60;99.90;;;;;;5107477;27;20043;-81
2023/03/24 03:02:15;;;;;;;7.15;2.28;;;11.70;99.90;;;;;;5072923;27;20125;-80
2023/03/24 03:04:52;;;;;;;4.85;2.38;;;11.70;99.90;;;;;;5107574;27;20038;-80
2023/03/24 03:07:25;;;;;;;3.90;1.98;;;11.70;99.90;;;;;;5090221;27;20557;-81
2023/03/24 03:09:56;;;;;;;4.90;2.42;;;11.70;99.90;;;;;;5089527;27;20071;-81
2023/03/24 03:12:25;;;;;;;7.30;2.20;;;11.70;99.90;;;;;;5107600;27;20085;-80
2023/03/24 03:14:56;;;;;;;3.78;2.10;;;11.70;99.90;;;;;;5106164;27;20039;-80
2023/03/24 03:17:29;;;;;;;4.80;1.90;;;11.70;99.90;;;;;;5107404;27;20050;-80
2023/03/24 03:20:03;;;;;;;5.93;2.13;;;11.70;99.90;;;;;;5107701;27;20111;-81
2023/03/24 03:22:33;;;;;;;4.32;1.98;;;11.80;99.90;;;;;;5106256;27;20050;-80
2023/03/24 03:25:02;;;;;;;3.03;1.65;;;11.70;99.90;;;;;;5090789;27;20062;-81
2023/03/24 03:27:37;;;;;;;4.18;2.08;;;11.80;99.90;;;;;;5089008;27;20062;-80
2023/03/24 03:30:19;;;;;;;3.00;1.85;;;11.80;99.90;;;;;;5107317;27;20414;-80
2023/03/24 03:33:01;;;;;;;5.90;1.70;;;11.80;99.90;;;;;;5089572;27;20118;-81
2023/03/24 03:35:35;;;;;;;4.38;1.45;;;11.80;99.90;;;;;;5105710;27;20039;-81
2023/03/24 03:38:14;;;;;;;3.50;2.03;;;11.90;99.90;;;;;;5107166;27;20051;-81
2023/03/24 03:41:01;;;;;;;3.25;1.30;;;11.80;99.90;;;;;;5088592;27;20043;-81
2023/03/24 03:43:29;;;;;;;3.40;1.33;;;11.80;99.90;;;;;;5106253;27;20090;-81
2023/03/24 03:45:55;;;;;;;3.45;1.08;;;11.70;99.90;;;;;;5090075;27;20336;-81
2023/03/24 03:48:25;;;;;;;4.85;1.20;;;11.70;99.90;;;;;;5087931;27;20086;-81
2023/03/24 03:50:52;;;;;;;3.17;1.10;;;11.60;99.90;;;;;;5089860;27;20043;-81
2023/03/24 03:53:22;;;;;;;3.58;1.30;;;11.50;99.90;;;;;;5105362;28;20092;-81
2023/03/24 03:55:48;;;;;;;3.28;1.17;;;11.50;99.90;;;;;;5106584;28;20042;-80
2023/03/24 03:58:13;;;;;;;6.82;1.35;;;11.40;99.90;;;;;;5106404;28;20122;-81
2023/03/24 04:00:43;;;;;;;7.07;1.60;;;11.30;99.90;;;;;;5106500;27;20436;-81
2023/03/24 04:03:24;;;;;;;11.05;1.45;;;11.30;99.90;;;;;;5106570;28;20084;-81
2023/03/24 04:06:02;;;;;;;4.72;1.10;;;11.30;99.90;;;;;;5088097;27;20043;-81
2023/03/24 04:08:31;;;;;;;10.73;2.30;;;11.20;99.90;;;;;;5107082;28;20103;-81
2023/03/24 04:11:16;;;;;;;5.00;1.25;;;11.20;99.90;;;;;;5088637;28;20043;-81
2023/03/24 04:14:11;;;;;;;5.00;1.10;;;11.10;99.90;;;;;;5088638;28;20072;-80
2023/03/24 04:17:03;;;;;;;6.32;1.10;;;11.10;99.90;;;;;;5106992;28;20071;-80
2023/03/24 04:19:49;;;;;;;7.03;1.50;;;11.00;99.90;;;;;;5105363;28;20051;-81
2023/03/24 04:22:53;;;;;;;6.32;1.17;;;11.00;99.90;;;;;;5092131;27;20058;-81
2023/03/24 04:25:33;;;;;;;;;;;10.90;99.90;;;;;;5111663;27;20394;-82
2023/03/24 04:28:25;;;;;;;5.85;0.90;;;10.80;99.90;;;;;;5110050;27;20306;-81
2023/03/24 04:31:17;;;;;;;6.88;0.70;;;10.80;99.90;;;;;;5092020;27;20091;-81
2023/03/24 04:33:57;;;;;;;6.80;1.10;;;10.70;99.90;;;;;;5089724;27;20052;-81
2023/03/24 04:36:33;;;;;;;5.90;0.82;;;10.70;99.90;;;;;;5109292;27;20047;-80
2023/03/24 04:39:00;;;;;;;6.60;0.77;;;10.60;99.90;;;;;;5110501;27;20456;-80
2023/03/24 04:41:29;;;;;;;8.80;1.02;;;10.50;99.90;;;;;;5094008;27;20050;-80
2023/03/24 04:43:56;;;;;;;6.45;1.00;;;10.40;99.90;;;;;;5109196;27;20047;-81
2023/03/24 04:46:25;;;;;;;3.80;0.60;;;10.40;99.90;;;;;;5093182;27;20081;-81
2023/03/24 04:48:51;;;;;;;9.48;1.30;;;10.30;99.90;;;;;;5091825;27;20039;-81
2023/03/24 04:51:19;;;;;;;5.63;0.95;;;10.20;99.90;;;;;;5110287;27;19977;-81
2023/03/24 04:53:46;;;;;;;8.27;0.95;;;10.20;99.90;;;;;;5092581;27;20120;-81
2023/03/24 04:56:29;;;;;;;9.00;1.60;;;10.10;99.90;;;;;;5092205;27;20051;-81
2023/03/24 04:58:57;;;;;;;7.28;1.23;;;10.10;99.90;;;;;;5093096;27;20047;-80
2023/03/24 05:01:28;;;;;;;9.13;2.47;;;10.00;99.90;;;;;;5091159;27;20486;-79
2023/03/24 05:03:53;;;;;;;13.52;2.63;;;10.00;99.90;;;;;;5110190;27;20054;-80
2023/03/24 05:06:20;;;;;;;3.95;1.10;;;10.00;99.90;;;;;;5108611;27;20402;-80
2023/03/24 05:08:46;;;;;;;6.45;1.10;;;9.90;99.90;;;;;;5109803;27;20051;-79
2023/03/24 05:11:12;;;;;;;11.32;1.92;;;9.90;99.90;;;;;;5108969;27;20051;-81
2023/03/24 05:13:37;;;;;;;11.20;2.15;;;9.80;99.90;;;;;;5109295;27;20039;-81
2023/03/24 05:16:03;;;;;;;9.98;2.38;;;9.80;99.90;;;;;;5128280;27;20035;-80
2023/03/24 05:18:29;;;;;;;8.93;1.45;;;9.80;99.90;;;;;;5108758;27;20031;-81
2023/03/24 05:20:55;;;;;;;9.75;1.70;;;10.40;99.90;;;;;;5093189;27;20549;-81
2023/03/24 05:23:21;;;;;;;13.57;2.40;;;9.80;99.90;;;;;;5108749;27;20118;-81
2023/03/24 05:25:47;;;;;;;11.50;1.80;;;9.70;99.90;;;;;;5127639;27;20051;-80
2023/03/24 05:28:13;;;;;;;9.88;1.75;;;9.70;99.90;;;;;;5109144;27;20087;-81
2023/03/24 05:30:38;;;;;;;9.80;1.95;;;9.80;99.90;;;;;;5091763;27;20075;-80
2023/03/24 05:33:04;;;;;;;18.13;3.33;;;9.70;99.90;;;;;;5109136;27;20047;-81
2023/03/24 05:35:30;;;;;;;20.73;3.80;;;9.70;99.90;;;;;;5107416;27;20411;-80
2023/03/24 05:37:55;;;;;;;10.75;2.03;;;10.20;99.90;;;;;;5109549;27;20039;-83
2023/03/24 05:40:21;;;;;;;15.50;2.40;;;9.70;99.90;;;;;;5126452;27;20078;-82
2023/03/24 05:42:50;;;;;;;13.65;1.80;;;10.40;99.90;;;;;;5127771;27;20061;-81
2023/03/24 05:45:16;;;;;;;9.73;1.90;;;9.70;99.90;;;;;;5127077;27;20458;-80
2023/03/24 05:47:42;;;;;;;13.20;2.25;;;9.80;99.90;;;;;;5108244;27;20043;-81
2023/03/24 05:50:08;;;;;;;12.98;2.10;;;9.80;99.90;;;;;;5108596;27;20089;-81
2023/03/24 05:52:34;;;;;;;12.25;1.95;;;9.80;99.90;;;;;;5107813;27;20043;-82
2023/03/24 05:55:01;;;;;;;20.50;2.47;;;10.00;99.90;;;;;;5109198;27;20039;-82
2023/03/24 05:57:29;;;;;;;13.82;1.73;;;10.30;99.90;;;;;;5108157;27;20402;-82
2023/03/24 05:59:56;;;;;;;12.02;2.40;;;9.90;99.90;;;;;;5108289;27;20063;-82
2023/03/24 06:02:23;;;;;;;14.32;1.70;;;9.90;99.90;;;;;;5126443;27;20482;-81
2023/03/24 06:04:50;;;;;;;14.48;2.70;;;9.90;99.90;;;;;;5074184;27;20043;-81
2023/03/24 06:07:16;;;;;;;20.88;3.20;;;9.90;99.90;;;;;;5127095;27;20055;-83
2023/03/24 06:09:45;;;;;;;12.52;1.88;;;10.20;99.90;;;;;;5125518;27;20088;-83
2023/03/24 06:12:12;;;;;;;16.05;1.90;;;10.90;99.90;;;;;;5127383;27;20043;-82
2023/03/24 06:14:37;;;;;;;12.30;2.38;;;10.40;99.90;;;;;;5107829;27;20031;-82
2023/03/24 06:17:03;;;;;;;13.07;2.10;;;11.10;99.90;;;;;;5091086;27;20383;-81
2023/03/24 06:19:32;;;;;;;11.38;2.03;;;10.00;99.90;;;;;;5107485;27;20410;-83
2023/03/24 06:22:01;;;;;;;14.65;1.85;;;10.50;99.90;;;;;;5107902;27;20039;-82
2023/03/24 06:24:28;;;;;;;13.38;2.08;;;10.00;99.90;;;;;;5092616;27;20202;-80
2023/03/24 06:27:00;;;;;;;11.13;1.58;;;10.00;99.90;;;;;;5106691;27;20055;-81
2023/03/24 06:29:28;;;;;;;17.00;2.07;;;10.50;99.90;;;;;;5076400;27;20497;-82
2023/03/24 06:31:53;;;;;;;10.07;1.70;;;10.00;99.90;;;;;;5106730;27;20042;-83
2023/03/24 06:34:23;;;;;;;13.30;1.80;;;10.00;99.90;;;;;;5092088;27;20069;-82
2023/03/24 06:36:50;;;;;;;10.50;1.73;;;10.00;99.90;;;;;;5091250;27;20482;-82
2023/03/24 06:39:16;;;;;;;14.52;2.03;;;10.10;99.90;;;;;;5090863;27;20263;-82
2023/03/24 06:41:42;;;;;;;18.42;2.50;;;10.00;99.90;;;;;;5108102;27;20471;-82
2023/03/24 06:44:11;;;;;;;14.43;2.95;;;10.00;99.90;;;;;;5089610;27;20039;-82
2023/03/24 06:46:36;;;;;;;12.23;3.50;;;10.30;99.90;;;;;;5090911;27;20194;-83
2023/03/24 06:49:02;;;;;;;12.95;1.90;;;10.00;99.90;;;;;;5089743;27;20126;-80
2023/03/24 06:51:28;;;;;;;14.02;1.60;;;10.00;99.90;;;;;;5090796;27;20047;-79
2023/03/24 06:53:54;;;;;;;11.80;1.55;;;10.00;99.90;;;;;;5107761;27;20047;-85
2023/03/24 06:56:20;;;;;;;11.07;2.15;;;10.00;99.90;;;;;;5090466;27;20549;-84
2023/03/24 06:58:48;;;;;;;12.45;1.85;;;10.00;99.90;;;;;;5090889;27;20127;-80
2023/03/24 07:01:14;;;;;;;16.05;2.65;;;10.00;99.90;;;;;;5106567;27;20054;-79
2023/03/24 07:03:41;;;;;;;6.50;1.98;;;10.10;99.90;;;;;;5108404;27;20047;-79
2023/03/24 07:06:09;;;;;;;14.05;2.00;;;10.00;99.90;;;;;;5125287;27;20496;-79
2023/03/24 07:08:36;;;;;;;14.10;1.70;;;10.00;99.90;;;;;;5089944;27;20086;-80
2023/03/24 07:11:02;;;;;;;10.60;2.17;;;10.10;99.90;;;;;;5090032;27;20043;-80
2023/03/24 07:13:28;;;;;;;13.82;1.92;;;10.10;99.90;;;;;;5089888;27;20045;-80
2023/03/24 07:15:54;;;;;;;11.35;2.42;;;10.10;99.90;;;;;;5126191;27;20031;-80
2023/03/24 07:18:20;;;;;;;16.98;2.30;;;10.20;99.90;;;;;;5105969;27;20226;-79
2023/03/24 07:20:46;;;;;;;12.88;2.30;;;10.10;99.90;;;;;;5090403;27;20138;-81
2023/03/24 07:23:12;;;;;;;24.13;3.05;;;10.50;99.90;;;;;;5105806;27;20071;-80
2023/03/24 07:25:41;;;;;;;16.27;2.10;;;10.20;99.90;;;;;;5089917;27;20081;-80
2023/03/24 07:28:07;;;;;;;14.27;2.28;;;10.30;99.90;;;;;;5090201;27;20047;-80
2023/03/24 07:30:34;;;;;;;15.63;2.05;;;10.20;99.90;;;;;;5124734;27;20553;-80
2023/03/24 07:33:02;;;;;;;13.00;2.00;;;10.20;99.90;;;;;;5107663;27;20112;-84
2023/03/24 07:35:28;;;;;;;16.85;3.30;;;10.30;99.90;;;;;;5124432;27;20514;-83
2023/03/24 07:38:00;;;;;;;15.13;2.13;;;10.30;99.90;;;;;;5107277;27;20043;-83
2023/03/24 07:40:26;;;;;;;18.10;2.42;;;10.20;99.90;;;;;;5105494;27;20130;-84
2023/03/24 07:42:52;;;;;;;16.55;2.05;;;10.30;99.90;;;;;;5106705;27;20185;-83
2023/03/24 07:45:18;;;;;;;15.05;2.30;;;10.30;99.90;;;;;;5089831;27;20629;-82
2023/03/24 07:47:45;;;;;;;16.95;2.53;;;10.70;99.90;;;;;;5088591;27;20038;-83
2023/03/24 07:50:12;;;;;;;23.02;2.40;;;10.30;99.90;;;;;;5089863;27;20498;-83
2023/03/24 07:52:40;;;;;;;22.08;3.38;;;10.30;99.90;;;;;;5105123;27;20047;-83
2023/03/24 07:55:11;;;;;;;27.08;2.95;;;10.80;99.90;;;;;;5106687;27;20039;-83
2023/03/24 07:57:48;;;;;;;22.60;2.95;;;10.40;99.90;;;;;;5087850;27;20047;-83
2023/03/24 08:00:16;;;;;;;15.00;2.75;;;10.40;99.90;;;;;;5089188;27;20054;-83
2023/03/24 08:02:44;;;;;;;18.85;2.63;;;10.50;99.90;;;;;;5089389;27;20051;-84
2023/03/24 08:05:13;;;;;;;21.10;3.42;;;10.50;99.90;;;;;;5105311;28;20047;-83
2023/03/24 08:07:41;;;;;;;22.80;4.18;;;10.60;99.90;;;;;;5106867;27;20043;-84
2023/03/24 08:10:12;;;;;;;20.33;2.92;;;10.60;99.90;;;;;;5088281;28;20058;-83
2023/03/24 08:12:38;;;;;;;20.08;3.00;;;10.70;99.90;;;;;;5125180;28;20047;-83
2023/03/24 08:15:06;;;;;;;21.75;2.92;;;10.70;99.90;;;;;;5124308;28;20118;-83
2023/03/24 08:17:32;;;;;;;18.52;2.55;;;10.70;99.90;;;;;;5124105;28;20047;-83
2023/03/24 08:19:58;;;;;;;21.77;3.00;;;10.80;99.90;;;;;;5089329;28;20092;-83
2023/03/24 08:22:24;;;;;;;21.05;3.17;;;10.80;99.90;;;;;;5105190;28;20043;-83
2023/03/24 08:24:50;;;;;;;21.30;2.22;;;10.80;99.90;;;;;;5073420;28;20394;-83
2023/03/24 08:27:16;;;;;;;21.48;3.10;;;10.90;99.90;;;;;;5104978;28;20100;-83
2023/03/24 08:29:42;;;;;;;19.25;2.72;;;10.90;99.90;;;;;;5089668;28;20055;-83
2023/03/24 08:32:08;;;;;;;24.40;3.72;;;11.00;99.90;;;;;;5105357;28;20079;-84
2023/03/24 08:34:33;;;;;;;24.13;2.75;;;11.00;99.90;;;;;;5088879;28;20070;-84
2023/03/24 08:37:00;;;;;;;17.05;2.03;;;11.10;99.90;;;;;;5072747;28;20039;-83
2023/03/24 08:39:31;;;;;;;19.08;3.45;;;11.10;99.90;;;;;;5105994;28;20147;-83
2023/03/24 08:41:57;;;;;;;18.63;3.08;;;11.20;99.90;;;;;;5089930;28;20186;-83
2023/03/24 08:44:22;;;;;;;24.42;2.80;;;11.30;99.90;;;;;;5087903;28;20660;-82
2023/03/24 08:46:48;;;;;;;20.85;3.25;;;11.40;99.90;;;;;;5105616;28;20086;-82
2023/03/24 08:49:14;;;;;;;19.50;2.30;;;11.40;99.90;;;;;;5088644;28;20050;-83
2023/03/24 08:51:40;;;;;;;17.48;2.65;;;11.50;99.90;;;;;;5088807;28;20506;-82
2023/03/24 08:54:06;;;;;;;27.13;2.92;;;11.70;99.90;;;;;;5088926;28;20080;-82
2023/03/24 08:56:32;;;;;;;20.85;2.65;;;11.90;99.90;;;;;;5104835;28;20502;-82
2023/03/24 08:58:58;;;;;;;22.80;3.35;;;12.00;99.90;;;;;;5089439;28;20046;-82
2023/03/24 09:01:23;;;;;;;18.95;2.75;;;12.20;99.90;;;;;;5104995;28;20035;-81
2023/03/24 09:03:49;;;;;;;13.32;2.38;;;12.70;99.90;;;;;;5106322;28;20784;-81
2023/03/24 09:06:16;;;;;;;22.23;3.08;;;12.20;99.90;;;;;;5087739;28;20058;-81
2023/03/24 09:08:42;;;;;;;13.15;2.50;;;12.20;99.90;;;;;;5125244;27;20051;-81
2023/03/24 09:11:15;;;;;;;19.90;3.13;;;12.10;99.90;;;;;;5109689;27;20502;-83
2023/03/24 09:13:42;;;;;;;21.85;3.13;;;12.20;99.90;;;;;;5108572;27;20479;-82
2023/03/24 09:16:08;;;;;;;25.65;3.53;;;12.30;99.90;;;;;;5093078;27;20047;-82
2023/03/24 09:18:34;;;;;;;15.93;3.13;;;12.50;99.90;;;;;;5091187;27;20039;-82
2023/03/24 09:21:00;;;;;;;15.57;2.83;;;12.50;99.90;;;;;;5109562;27;20054;-82
2023/03/24 09:23:30;;;;;;;13.63;2.60;;;12.70;99.90;;;;;;5091541;27;20046;-82
2023/03/24 09:25:57;;;;;;;23.48;2.92;;;12.70;99.90;;;;;;5109082;27;20617;-83
2023/03/24 09:28:24;;;;;;;14.38;3.83;;;12.80;99.90;;;;;;5075622;27;20055;-83
2023/03/24 09:31:00;;;;;;;21.10;2.50;;;12.70;99.90;;;;;;5126889;27;20090;-82
2023/03/24 09:33:28;;;;;;;16.85;3.40;;;12.50;99.90;;;;;;5092428;27;20043;-84
2023/03/24 09:35:56;;;;;;;18.17;2.17;;;12.30;99.90;;;;;;5091275;27;20457;-82
2023/03/24 09:38:22;;;;;;;16.15;2.60;;;12.00;99.90;;;;;;5109102;27;20089;-82
2023/03/24 09:40:59;;;;;;;17.85;2.70;;;11.80;99.90;;;;;;5091431;27;20043;-82
2023/03/24 09:43:49;;;;;;;19.63;3.25;;;11.80;99.90;;;;;;5091535;27;20043;-82
2023/03/24 09:46:27;;;;;;;18.85;2.47;;;11.80;99.90;;;;;;5109467;27;20059;-81
2023/03/24 09:48:56;;;;;;;19.83;2.72;;;11.80;99.90;;;;;;5107519;27;20130;-82
2023/03/24 09:51:27;;;;;;;12.32;2.63;;;11.80;99.90;;;;;;5127283;27;20039;-82
2023/03/24 09:54:31;;;;;;;20.13;1.80;;;11.70;99.90;;;;;;5108584;27;20043;-82
2023/03/24 09:56:58;;;;;;;17.92;3.15;;;11.70;99.90;;;;;;5079625;27;20061;-82
2023/03/24 09:59:33;;;;;;;13.13;2.78;;;11.70;99.90;;;;;;5128088;27;20039;-82
2023/03/24 10:01:59;;;;;;;20.17;3.80;;;11.70;99.90;;;;;;5108176;27;20049;-82
2023/03/24 10:04:27;;;;;;;20.42;2.75;;;11.80;99.90;;;;;;5108394;27;20054;-82
2023/03/24 10:07:23;;;;;;;15.15;3.10;;;11.90;99.90;;;;;;5108925;27;20445;-81
2023/03/24 10:09:58;;;;;;;14.35;2.67;;;12.20;99.90;;;;;;5089987;27;20573;-81
2023/03/24 10:12:32;;;;;;;13.43;2.10;;;12.70;99.90;;;;;;5108838;27;20119;-81
2023/03/24 10:15:25;;;;;;;16.60;2.17;;;13.00;99.90;;;;;;5090669;27;20074;-81
2023/03/24 10:18:25;;;;;;;13.43;2.20;;;13.10;99.90;;;;;;5126238;27;20043;-81
2023/03/24 10:21:00;;;;;;;18.52;2.60;;;13.00;99.90;;;;;;5108133;27;20404;-81
2023/03/24 10:23:57;;;;;;;15.32;2.28;;;12.90;99.90;;;;;;5107540;27;20043;-81
2023/03/24 10:26:45;;;;;;;6.40;1.35;;;12.90;99.90;;;;;;5089817;27;20087;-81
2023/03/24 10:29:22;;;;;;;11.95;1.98;;;13.00;99.90;;;;;;5108781;27;20538;-81
2023/03/24 10:32:15;;;;;;;16.80;3.08;;;13.10;99.90;;;;;;5106878;27;20528;-81
2023/03/24 10:34:43;;;;;;;17.83;2.83;;;13.40;99.90;;;;;;5083838;27;20089;-82
2023/03/24 10:37:10;;;;;;;12.20;1.80;;;13.60;99.90;;;;;;5074979;27;20546;-81
2023/03/24 10:39:36;;;;;;;27.05;2.80;;;13.70;99.90;;;;;;5106498;27;20035;-80
2023/03/24 10:42:03;;;;;;;14.07;1.90;;;13.50;99.90;;;;;;5107852;27;20035;-79
2023/03/24 10:44:29;;;;;;;23.05;3.63;;;13.50;99.90;;;;;;5125398;27;20051;-79
2023/03/24 10:47:01;;;;;;;18.60;2.45;;;13.60;99.90;;;;;;5107563;27;20123;-79
2023/03/24 10:49:27;;;;;;;25.23;3.00;;;13.70;99.90;;;;;;5107864;27;20039;-80
2023/03/24 10:52:00;;;;;;;17.83;2.58;;;13.90;99.90;;;;;;5107364;27;20533;-80
2023/03/24 10:54:27;;;;;;;15.60;2.50;;;13.90;99.90;;;;;;5091718;27;20384;-79
2023/03/24 10:56:59;;;;;;;13.48;2.65;;;14.00;99.90;;;;;;5106257;27;20031;-79
2023/03/24 10:59:50;;;;;;;12.23;2.10;;;14.00;99.90;;;;;;5091097;27;20454;-79
2023/03/24 11:02:30;;;;;;;15.20;2.13;;;14.10;99.90;;;;;;5090411;27;20051;-80
2023/03/24 11:05:22;;;;;;;10.15;2.00;;;14.00;99.90;;;;;;5107177;27;20375;-80
2023/03/24 11:07:50;;;;;;;12.05;2.00;;;13.80;99.90;;;;;;5091475;27;20104;-79
2023/03/24 11:10:23;;;;;;;16.52;2.55;;;13.50;99.90;;;;;;5089633;27;20126;-80
2023/03/24 11:12:56;;;;;;;10.20;2.17;;;13.40;99.90;;;;;;5107560;27;20050;-79
2023/03/24 11:15:33;;;;;;;13.15;2.33;;;12.00;99.90;;;;;;5090817;27;20092;-80
2023/03/24 11:18:15;;;;;;;20.13;2.67;;;13.20;99.90;;;;;;5106721;27;20047;-80
2023/03/24 11:20:49;;;;;;;13.30;2.65;;;13.10;99.90;;;;;;5108016;27;20465;-80
2023/03/24 11:23:38;;;;;;;13.70;1.95;;;13.00;99.90;;;;;;5105920;27;20061;-79
2023/03/24 11:26:16;;;;;;;19.63;2.50;;;12.90;99.90;;;;;;5089378;27;20059;-79
2023/03/24 11:28:56;;;;;;;10.50;2.53;;;13.00;99.90;;;;;;5107914;27;20062;-80
2023/03/24 11:31:29;;;;;;;11.85;2.20;;;13.30;99.90;;;;;;5104859;28;20528;-79
2023/03/24 11:34:06;;;;;;;13.63;1.75;;;13.60;99.90;;;;;;5106344;27;20039;-79
2023/03/24 11:36:32;;;;;;;15.50;2.00;;;13.90;99.90;;;;;;5088851;27;20047;-79
2023/03/24 11:39:25;;;;;;;9.75;1.80;;;14.00;99.90;;;;;;5106086;27;20047;-79
2023/03/24 11:41:58;;;;;;;19.13;2.63;;;13.90;99.90;;;;;;5100492;27;20054;-79
2023/03/24 11:44:24;;;;;;;11.82;2.10;;;13.80;99.90;;;;;;5105557;27;20102;-79
2023/03/24 11:46:56;;;;;;;15.10;1.85;;;13.90;99.90;;;;;;5089254;27;20051;-79
2023/03/24 11:49:27;;;;;;;15.43;2.50;;;13.90;99.90;;;;;;5105955;27;20039;-79
2023/03/24 11:51:54;;;;;;;9.90;2.25;;;14.00;99.90;;;;;;5105355;27;20043;-82
2023/03/24 11:54:26;;;;;;;15.77;2.33;;;14.00;99.90;;;;;;5073655;27;20039;-81
2023/03/24 11:56:54;;;;;;;13.80;2.85;;;14.20;99.90;;;;;;5105332;27;20118;-81
2023/03/24 11:59:29;;;;;;;20.02;3.50;;;14.40;99.90;;;;;;5125028;27;20433;-82
2023/03/24 12:02:06;;;;;;;15.02;2.25;;;14.60;99.90;;;;;;5105312;27;20144;-82
2023/03/24 12:04:42;;;;;;;10.32;1.70;;;14.70;99.90;;;;;;5105738;28;20039;-82
2023/03/24 12:07:26;;;;;;;11.57;2.08;;;14.90;99.90;;;;;;5089930;27;20061;-81
2023/03/24 12:10:01;;;;;;;15.98;2.33;;;15.10;99.90;;;;;;5104895;27;20130;-81
2023/03/24 12:12:45;;;;;;;11.23;1.98;;;15.20;99.90;;;;;;5124984;28;20123;-82
2023/03/24 12:15:29;;;;;;;14.30;2.00;;;15.30;99.90;;;;;;5105609;28;20046;-82
2023/03/24 12:18:25;;;;;;;13.07;2.58;;;15.30;99.90;;;;;;5105657;28;20043;-82
2023/03/24 12:20:53;;;;;;;12.57;2.60;;;15.40;99.90;;;;;;5106436;28;20043;-81
2023/03/24 12:23:28;;;;;;;14.13;1.88;;;15.50;99.90;;;;;;5105277;28;20094;-82
2023/03/24 12:26:13;;;;;;;11.13;2.53;;;15.40;99.90;;;;;;5124266;27;20948;-82
2023/03/24 12:28:57;;;;;;;15.43;1.73;;;15.10;99.90;;;;;;5089806;28;20489;-82
2023/03/24 12:31:45;;;;;;;15.55;2.50;;;14.70;98.30;;;;;;5088103;28;20039;-82
2023/03/24 12:34:23;;;;;;;17.73;2.22;;;14.60;99.90;;;;;;5105897;28;20100;-81
2023/03/24 12:37:06;;;;;;;14.85;1.85;;;14.40;99.90;;;;;;5106389;28;20396;-81
2023/03/24 12:39:36;;;;;;;12.45;2.60;;;14.20;99.90;;;;;;5105592;28;20415;-83
2023/03/24 12:42:14;;;;;;;12.65;2.50;;;14.10;99.90;;;;;;5089847;28;20458;-82
2023/03/24 12:45:02;;;;;;;15.85;2.53;;;13.90;99.90;;;;;;5108434;27;20401;-82
2023/03/24 12:47:45;;;;;;;13.32;2.15;;;13.90;99.90;;;;;;5109295;27;20097;-83
2023/03/24 12:50:25;;;;;;;14.40;2.40;;;13.80;99.90;;;;;;5110450;27;20047;-82
2023/03/24 12:53:25;;;;;;;11.88;1.88;;;13.30;99.90;;;;;;5108247;27;20078;-82
2023/03/24 12:55:53;;;;;;;15.75;2.97;;;13.80;99.90;;;;;;5109385;27;20051;-83
2023/03/24 12:58:27;;;;;;;10.95;1.92;;;13.80;99.90;;;;;;5110067;27;20553;-82
2023/03/24 13:01:14;;;;;;;14.18;3.15;;;13.80;99.90;;;;;;5108596;27;20089;-81
2023/03/24 13:03:48;;;;;;;18.52;2.45;;;14.00;99.90;;;;;;5092990;27;20486;-82
2023/03/24 13:06:31;;;;;;;10.88;1.85;;;14.10;99.90;;;;;;5108148;27;20043;-82
2023/03/24 13:09:35;;;;;;;18.75;2.25;;;14.40;99.90;;;;;;5091220;27;20487;-82